PAFA/FAI METAR and TAF weather

Enter ICAO airport designator
Station Type Date Time Source
PAFA METAR 2019/06/19 05:53 UTC NOAA

PAFA 190553Z 32004KT 10SM FEW060CB BKN085 BKN100 BKN200 21/11 A2991 RMK AO2 SLP131 PRSNT WX VCSH NE NW CB NE NW AND DSNT SE MOV W 60000 T02060111 10222 20189 51016


Station Type Date Time Source
PAFA Decoded METAR 2019/06/19 05:53 UTC NOAA

Fairbanks, Fairbanks International Airport, AK, United States (PAFA) 64-48-14N 147-52-34W 140M
Jun 19, 2019 - 01:53 AM EDT / 2019.06.19 0553 UTC
Wind: from the NW (320 degrees) at 5 MPH (4 KT):0
Visibility: 10 mile(s):0
Sky conditions: mostly cloudy
Weather: Cumulonimbus clouds observed
Temperature: 69.1 F (20.6 C)
Dew Point: 52.0 F (11.1 C)
Relative Humidity: 54%
Pressure (altimeter): 29.91 in. Hg (1012 hPa)
Pressure tendency: 0.05 inches (1.6 hPa) higher than three hours ago
ob: PAFA 190553Z 32004KT 10SM FEW060CB BKN085 BKN100 BKN200 21/11 A2991 RMK AO2 SLP131 PRSNT WX VCSH NE NW CB NE NW AND DSNT SE MOV W 60000 T02060111 10222 20189 51016
cycle: 6

Station Type Date Time Source
PAFA TAF 2019/06/19 06:30 UTC NOAA

TAF TAF PAFA 190524Z 1906/2012 VRB06KT P6SM VCSH BKN050 BKN100 BKN200
FM190900 VRB06KT P6SM SCT050 BKN100 BKN200
FM192000 VRB06KT P6SM VCTS BKN050CB BKN100 BKN200

Example: see airport list